EDDV 200050Z AUTO 27008KT 250V310 9999 BKN018 16/15 Q1020 EDDV 200020Z AUTO 25005KT 9999 BKN013 16/15 Q1020 EDDV 192350Z AUTO 27007KT 240V300 9999 BKN011 BKN027 16/15 Q1020 EDDV 192320Z AUTO 27007KT 9999 SCT012 SCT040 16/15 Q1020 EDDV 192250Z AUTO 28006KT CAVOK 16/15 Q1020 EDDV 192220Z AUTO 27008KT 240V300 9999 FEW048 17/15 Q1019 EDDV 192150Z AUTO 26008KT 230V290 CAVOK 16/15 Q1019 EDDV 192120Z AUTO 27004KT 200V300 CAVOK 16/15 Q1019 EDDV 192050Z AUTO 26004KT CAVOK 16/16 Q1019 NOSIG EDDV 192020Z AUTO 26005KT CAVOK 17/16 Q1018 NOSIG EDDV 191950Z AUTO VRB01KT CAVOK 17/16 Q1018 NOSIG EDDV 191920Z AUTO 24004KT 210V280 CAVOK 17/16 Q1017 EDDV 191850Z AUTO 19003KT CAVOK 18/16 Q1017 BECMG 27007KT EDDV 191820Z AUTO 18003KT 150V210 CAVOK 18/17 Q1017 BECMG 27007KT EDDV 191750Z AUTO 17005KT 140V220 CAVOK 18/17 Q1018 BECMG 27007KT EDDV 191720Z AUTO 16004KT 130V190 CAVOK 18/17 Q1017 BECMG 27007KT EDDV 191650Z AUTO 26005KT 210V300 9999 -RA NSC 18/16 Q1018 TEMPO 05005KT EDDV 191620Z AUTO 28013KT 240V310 9999 -RA NSC 18/16 Q1019 RETSRA TEMPO 24025G40KT TSRA BKN020CB EDDV 191550Z AUTO 28017G28KT 9999 +TSRA FEW021 FEW///CB 19/15 Q1018 TEMPO 23025G40KT 2000 TSRA FEW008 BKN015CB EDDV 191520Z AUTO 19005KT 160V230 9999 SHRA VCTS FEW049 FEW///CB 26/14 Q1016 TEMPO 23030G50KT 2000 +TSRA FEW008 BKN015CB EDDV 191450Z AUTO 21008KT 180V240 CAVOK 27/14 Q1015 TEMPO 23030G50KT 2000 +TSGRRA FEW008 BKN015CB EDDV 191420Z AUTO 20009KT 160V260 CAVOK 28/14 Q1016 TEMPO FM1530 23020G35KT TSRA BKN015CB EDDV 191350Z AUTO 18008KT 140V240 CAVOK 28/13 Q1016 TEMPO FM1530 23020G35KT TSRA BKN015CB EDDV 191320Z AUTO 19010KT 150V220 CAVOK 28/14 Q1016 TEMPO FM1500 23020G35KT TSRA BKN015CB EDDV 191250Z AUTO 19008KT 140V230 CAVOK 27/13 Q1016 NOSIG EDDV 191220Z AUTO 20009KT 150V240 CAVOK 28/13 Q1016 NOSIG EDDV 191150Z AUTO 19008KT 160V240 CAVOK 28/12 Q1017 NOSIG EDDV 191120Z AUTO 18009KT 130V250 CAVOK 27/12 Q1017 NOSIG EDDV 191050Z AUTO 21011KT 150V250 CAVOK 27/11 Q1018 NOSIG EDDV 191020Z AUTO 20008KT 150V260 CAVOK 26/13 Q1018 NOSIG EDDV 190950Z AUTO 19009KT 150V240 CAVOK 25/13 Q1019 NOSIG EDDV 190920Z AUTO 16006KT 100V220 CAVOK 25/13 Q1019 BECMG 22007KT EDDV 190850Z AUTO 17008KT 130V220 CAVOK 25/13 Q1019 NOSIG EDDV 190820Z AUTO 18008KT 140V230 CAVOK 24/13 Q1019 EDDV 190750Z AUTO 17007KT 090V220 CAVOK 23/14 Q1019 NOSIG EDDV 190720Z AUTO 18008KT 150V220 CAVOK 23/12 Q1019 NOSIG EDDV 190650Z AUTO 16006KT 130V200 CAVOK 23/14 Q1020 NOSIG EDDV 190620Z AUTO 18006KT 150V220 CAVOK 22/14 Q1020 NOSIG EDDV 190550Z AUTO 17005KT 130V210 CAVOK 21/14 Q1019 NOSIG EDDV 190520Z AUTO 16005KT 110V190 CAVOK 20/14 Q1019 NOSIG EDDV 190450Z AUTO 14003KT 100V190 CAVOK 20/14 Q1019 NOSIG EDDV 190420Z AUTO 14004KT 100V180 CAVOK 19/13 Q1019 NOSIG EDDV 190350Z AUTO 16005KT 130V190 CAVOK 19/13 Q1019 NOSIG EDDV 190320Z AUTO 15003KT 110V180 CAVOK 19/14 Q1019 EDDV 190250Z AUTO 14003KT 110V180 CAVOK 19/14 Q1019 EDDV 190220Z AUTO 15003KT 100V200 CAVOK 20/14 Q1019 EDDV 190150Z AUTO 15003KT 120V200 CAVOK 20/14 Q1019 EDDV 190120Z AUTO 15004KT 120V190 CAVOK 20/14 Q1020 EDDV 190050Z AUTO 15004KT 100V200 CAVOK 21/14 Q1020 EDDV 190020Z AUTO 16005KT 100V230 CAVOK 21/14 Q1020 EDDV 182350Z AUTO 16005KT 130V200 CAVOK 21/14 Q1020 EDDV 182320Z AUTO 15004KT 100V190 CAVOK 21/14 Q1020 EDDV 182250Z AUTO 16004KT 120V200 CAVOK 21/14 Q1020 EDDV 182220Z AUTO VRB02KT CAVOK 22/14 Q1020 EDDV 182150Z AUTO VRB02KT CAVOK 22/14 Q1020 EDDV 182120Z AUTO 15003KT 110V180 CAVOK 22/14 Q1020 EDDV 182050Z AUTO 12003KT 090V180 CAVOK 23/14 Q1020 NOSIG EDDV 182020Z AUTO 12002KT CAVOK 22/14 Q1020 NOSIG EDDV 181950Z AUTO VRB02KT CAVOK 23/14 Q1020 NOSIG EDDV 181920Z AUTO 14002KT CAVOK 23/15 Q1020 NOSIG EDDV 181850Z AUTO 17003KT 130V190 CAVOK 25/14 Q1020 NOSIG EDDV 181820Z AUTO 19003KT CAVOK 26/14 Q1020 NOSIG EDDV 181750Z AUTO 20004KT 160V230 CAVOK 26/14 Q1020 NOSIG EDDV 181720Z AUTO 21005KT 180V240 CAVOK 27/15 Q1020 NOSIG EDDV 181650Z AUTO 21006KT 180V240 CAVOK 26/14 Q1020 NOSIG EDDV 181620Z AUTO 21006KT 170V250 CAVOK 27/14 Q1020 NOSIG EDDV 181550Z AUTO 22006KT 170V280 CAVOK 27/14 Q1020 NOSIG EDDV 181520Z AUTO 21006KT 170V260 CAVOK 28/14 Q1020 NOSIG EDDV 181450Z AUTO 22006KT 170V260 CAVOK 28/14 Q1021 NOSIG EDDV 181420Z AUTO 21006KT 140V260 CAVOK 28/14 Q1021 NOSIG EDDV 181350Z AUTO 23007KT 190V280 CAVOK 28/15 Q1021 NOSIG EDDV 181320Z AUTO 24005KT 160V310 CAVOK 28/14 Q1021 NOSIG

METAR Messwerte "HANNOVER" EDDV

Zurück zur Übersicht

Ortsname
Ländercode / m ü. NN
Zeit Temperatur Taupunkt Rel.
Luftfeuchte
Luftdruck:
Altimeter
NN
Station
Wind in Beaufort
(Knoten)
Sichtweite
(Meter)
Wolken
(Meter über Grund)
Wettererscheinung
HANNOVER
DE 53
Fr 20.05. 02:50161594 %1020
1020
1014
W 3 (8)
WSW - NW
>= 10000Stark bewölkt (550) 
HANNOVER
DE 53
Fr 20.05. 02:20161594 %1020
1020
1014
WSW 2 (5)>= 10000Stark bewölkt (400) 
HANNOVER
DE 53
Fr 20.05. 01:50161594 %1020
1020
1014
W 3 (7)
WSW - WNW
>= 10000Stark bewölkt (820)
Stark bewölkt (340)
 
HANNOVER
DE 53
Fr 20.05. 01:20161594 %1020
1020
1014
W 3 (7)>= 10000Wolkig (1200)
Wolkig (370)
 
HANNOVER
DE 53
Fr 20.05. 00:50161594 %1020
1020
1014
W 2 (6)>= 10000Nicht signifikant 
HANNOVER
DE 53
Fr 20.05. 00:20171588 %1019
1019
1013
W 3 (8)
WSW - WNW
>= 10000Leicht bewölkt (1500) 
HANNOVER
DE 53
Do 19.05. 23:50161594 %1019
1019
1013
W 3 (8)
SW - WNW
>= 10000Nicht signifikant 
HANNOVER
DE 53
Do 19.05. 23:20161594 %1019
1019
1013
W 2 (4)
SSW - WNW
>= 10000Nicht signifikant 
HANNOVER
DE 53
Do 19.05. 22:501616100 %1019
1019
1013
W 2 (4)>= 10000Nicht signifikant 
HANNOVER
DE 53
Do 19.05. 22:20171694 %1018
1018
1012
W 2 (5)>= 10000Nicht signifikant 
HANNOVER
DE 53
Do 19.05. 21:50171694 %1018
1018
1012
Uml 1 (1)>= 10000Nicht signifikant 
HANNOVER
DE 53
Do 19.05. 21:20171694 %1017
1017
1011
WSW 2 (4)
SSW - W
>= 10000Nicht signifikant 
HANNOVER
DE 53
Do 19.05. 20:50181688 %1017
1017
1011
S 2 (3)
Bald Übergang zu:
W 3 (7)
>= 10000Nicht signifikant 
HANNOVER
DE 53
Do 19.05. 20:20181794 %1017
1017
1011
S 2 (3)
SSO - SSW
Bald Übergang zu:
W 3 (7)
>= 10000Nicht signifikant 
HANNOVER
DE 53
Do 19.05. 19:50181794 %1018
1018
1012
S 2 (5)
SO - SW
Bald Übergang zu:
W 3 (7)
>= 10000Nicht signifikant 
HANNOVER
DE 53
Do 19.05. 19:20181794 %1017
1017
1011
SSO 2 (4)
SO - S
Bald Übergang zu:
W 3 (7)
>= 10000Nicht signifikant 
HANNOVER
DE 53
Do 19.05. 18:50181688 %1018
1018
1012
W 2 (5)
SSW - WNW
Bald zeitweise:
NO 2 (5)
>= 10000Nicht signifikantRegen (schwach)
HANNOVER
DE 53
Do 19.05. 18:20181688 %1019
1019
1013
W 4 (13)
WSW - NW
Bald zeitweise:
WSW 6 (25) - 8 (40)
>= 10000Nicht signifikantRegen (schwach)
Bald zeitweise: Gewitter mit Regen
HANNOVER
DE 53
Do 19.05. 17:50191578 %1018
1018
1012
W 5 (17) - 7 (28)
Bald zeitweise:
SW 6 (25) - 8 (40)
>= 10000
Bald zeitweise: 2000
Leicht bewölkt (640)Gewitter mit Regen (stark)
Bald zeitweise: Gewitter mit Regen
HANNOVER
DE 53
Do 19.05. 17:20261448 %1016
1016
1010
S 2 (5)
SSO - SW
Bald zeitweise:
SW 7 (30) - 10 (50)
>= 10000
Bald zeitweise: 2000
Leicht bewölkt (1500)Regen-Schauer
Bald zeitweise: Gewitter mit Regen (stark)
HANNOVER
DE 53
Do 19.05. 16:50271445 %1015
1015
1009
SSW 3 (8)
S - WSW
Bald zeitweise:
SW 7 (30) - 10 (50)
>= 10000
Bald zeitweise: 2000
Nicht signifikant Bald zeitweise: Gewitter mit Hagel/Regen (stark)
HANNOVER
DE 53
Do 19.05. 16:20281442 %1016
1016
1010
SSW 3 (9)
SSO - W
Ab 17:30 zeitweise:
SW 5 (20) - 8 (35)
>= 10000Nicht signifikant Ab 17:30 zeitweise: Gewitter mit Regen
HANNOVER
DE 53
Do 19.05. 15:50281340 %1016
1016
1010
S 3 (8)
SO - WSW
Ab 17:30 zeitweise:
SW 5 (20) - 8 (35)
>= 10000Nicht signifikant Ab 17:30 zeitweise: Gewitter mit Regen
HANNOVER
DE 53
Do 19.05. 15:20281442 %1016
1016
1010
S 3 (10)
SSO - SW
Ab 17:00 zeitweise:
SW 5 (20) - 8 (35)
>= 10000Nicht signifikant Ab 17:00 zeitweise: Gewitter mit Regen
HANNOVER
DE 53
Do 19.05. 14:50271342 %1016
1016
1010
S 3 (8)
SO - SW
>= 10000Nicht signifikant 
HANNOVER
DE 53
Do 19.05. 14:20281340 %1016
1016
1010
SSW 3 (9)
SSO - WSW
>= 10000Nicht signifikant 
HANNOVER
DE 53
Do 19.05. 13:50281237 %1017
1017
1011
S 3 (8)
SSO - WSW
>= 10000Nicht signifikant 
HANNOVER
DE 53
Do 19.05. 13:20271239 %1017
1017
1011
S 3 (9)
SO - WSW
>= 10000Nicht signifikant 
HANNOVER
DE 53
Do 19.05. 12:50271137 %1018
1018
1012
SSW 4 (11)
SSO - WSW
>= 10000Nicht signifikant 
HANNOVER
DE 53
Do 19.05. 12:20261345 %1018
1018
1012
SSW 3 (8)
SSO - W
>= 10000Nicht signifikant 
HANNOVER
DE 53
Do 19.05. 11:50251347 %1019
1019
1013
S 3 (9)
SSO - WSW
>= 10000Nicht signifikant 
HANNOVER
DE 53
Do 19.05. 11:20251347 %1019
1019
1013
SSO 2 (6)
O - SW
Bald Übergang zu:
SW 3 (7)
>= 10000Nicht signifikant 
HANNOVER
DE 53
Do 19.05. 10:50251347 %1019
1019
1013
S 3 (8)
SO - SW
>= 10000Nicht signifikant 
HANNOVER
DE 53
Do 19.05. 10:20241350 %1019
1019
1013
S 3 (8)
SO - SW
>= 10000Nicht signifikant 
HANNOVER
DE 53
Do 19.05. 09:50231457 %1019
1019
1013
S 3 (7)
O - SW
>= 10000Nicht signifikant 
HANNOVER
DE 53
Do 19.05. 09:20231250 %1019
1019
1013
S 3 (8)
SSO - SW
>= 10000Nicht signifikant 
HANNOVER
DE 53
Do 19.05. 08:50231457 %1020
1020
1014
SSO 2 (6)
SO - SSW
>= 10000Nicht signifikant 
HANNOVER
DE 53
Do 19.05. 08:20221460 %1020
1020
1014
S 2 (6)
SSO - SW
>= 10000Nicht signifikant 
HANNOVER
DE 53
Do 19.05. 07:50211464 %1019
1019
1013
S 2 (5)
SO - SSW
>= 10000Nicht signifikant 
HANNOVER
DE 53
Do 19.05. 07:20201468 %1019
1019
1013
SSO 2 (5)
OSO - S
>= 10000Nicht signifikant 
HANNOVER
DE 53
Do 19.05. 06:50201468 %1019
1019
1013
SO 2 (3)
O - S
>= 10000Nicht signifikant 
HANNOVER
DE 53
Do 19.05. 06:20191368 %1019
1019
1013
SO 2 (4)
O - S
>= 10000Nicht signifikant 
HANNOVER
DE 53
Do 19.05. 05:50191368 %1019
1019
1013
SSO 2 (5)
SO - S
>= 10000Nicht signifikant 
HANNOVER
DE 53
Do 19.05. 05:20191473 %1019
1019
1013
SSO 2 (3)
OSO - S
>= 10000Nicht signifikant 
HANNOVER
DE 53
Do 19.05. 04:50191473 %1019
1019
1013
SO 2 (3)
OSO - S
>= 10000Nicht signifikant 
HANNOVER
DE 53
Do 19.05. 04:20201468 %1019
1019
1013
SSO 2 (3)
O - SSW
>= 10000Nicht signifikant 
HANNOVER
DE 53
Do 19.05. 03:50201468 %1019
1019
1013
SSO 2 (3)
OSO - SSW
>= 10000Nicht signifikant 
HANNOVER
DE 53
Do 19.05. 03:20201468 %1020
1020
1014
SSO 2 (4)
OSO - S
>= 10000Nicht signifikant 
HANNOVER
DE 53
Do 19.05. 02:50211464 %1020
1020
1014
SSO 2 (4)
O - SSW
>= 10000Nicht signifikant 
HANNOVER
DE 53
Do 19.05. 02:20211464 %1020
1020
1014
SSO 2 (5)
O - SW
>= 10000Nicht signifikant 
HANNOVER
DE 53
Do 19.05. 01:50211464 %1020
1020
1014
SSO 2 (5)
SO - SSW
>= 10000Nicht signifikant 
HANNOVER
DE 53
Do 19.05. 01:20211464 %1020
1020
1014
SSO 2 (4)
O - S
>= 10000Nicht signifikant 
HANNOVER
DE 53
Do 19.05. 00:50211464 %1020
1020
1014
SSO 2 (4)
OSO - SSW
>= 10000Nicht signifikant 
HANNOVER
DE 53
Do 19.05. 00:20221460 %1020
1020
1014
Uml 1 (2)>= 10000Nicht signifikant 
HANNOVER
DE 53
Mi 18.05. 23:50221460 %1020
1020
1014
Uml 1 (2)>= 10000Nicht signifikant 
HANNOVER
DE 53
Mi 18.05. 23:20221460 %1020
1020
1014
SSO 2 (3)
OSO - S
>= 10000Nicht signifikant 
HANNOVER
DE 53
Mi 18.05. 22:50231457 %1020
1020
1014
OSO 2 (3)
O - S
>= 10000Nicht signifikant 
HANNOVER
DE 53
Mi 18.05. 22:20221460 %1020
1020
1014
OSO 1 (2)>= 10000Nicht signifikant 
HANNOVER
DE 53
Mi 18.05. 21:50231457 %1020
1020
1014
Uml 1 (2)>= 10000Nicht signifikant 
HANNOVER
DE 53
Mi 18.05. 21:20231561 %1020
1020
1014
SO 1 (2)>= 10000Nicht signifikant 
HANNOVER
DE 53
Mi 18.05. 20:50251450 %1020
1020
1014
S 2 (3)
SO - S
>= 10000Nicht signifikant 
HANNOVER
DE 53
Mi 18.05. 20:20261448 %1020
1020
1014
S 2 (3)>= 10000Nicht signifikant 
HANNOVER
DE 53
Mi 18.05. 19:50261448 %1020
1020
1014
SSW 2 (4)
SSO - SW
>= 10000Nicht signifikant 
HANNOVER
DE 53
Mi 18.05. 19:20271548 %1020
1020
1014
SSW 2 (5)
S - WSW
>= 10000Nicht signifikant 
HANNOVER
DE 53
Mi 18.05. 18:50261448 %1020
1020
1014
SSW 2 (6)
S - WSW
>= 10000Nicht signifikant 
HANNOVER
DE 53
Mi 18.05. 18:20271445 %1020
1020
1014
SSW 2 (6)
S - WSW
>= 10000Nicht signifikant 
HANNOVER
DE 53
Mi 18.05. 17:50271445 %1020
1020
1014
SW 2 (6)
S - W
>= 10000Nicht signifikant 
HANNOVER
DE 53
Mi 18.05. 17:20281442 %1020
1020
1014
SSW 2 (6)
S - W
>= 10000Nicht signifikant 
HANNOVER
DE 53
Mi 18.05. 16:50281442 %1021
1021
1015
SW 2 (6)
S - W
>= 10000Nicht signifikant 
HANNOVER
DE 53
Mi 18.05. 16:20281442 %1021
1021
1015
SSW 2 (6)
SO - W
>= 10000Nicht signifikant 
HANNOVER
DE 53
Mi 18.05. 15:50281545 %1021
1021
1015
SW 3 (7)
S - W
>= 10000Nicht signifikant 
HANNOVER
DE 53
Mi 18.05. 15:20281442 %1021
1021
1015
WSW 2 (5)
SSO - NW
>= 10000Nicht signifikant 

Altimeter: Einstellung am Altimeter (Höhenmesser), die Höhe 0 muss auf diesen Luftdruckwert zeigen, damit das Gerät die Stationshöhe richtig anzeigt.

NN: Luftdruck reduziert auf "Normal Null", auf Meereshöhe, dieser von der Temperatur abhängige Wert wird bisweilen unkorrekt einfach als "Luftdruck" bezeichnet. Eigentlich nur eine fiktive Größe, die es erlaubt, Stationen auf unterschiedlichen Höhen miteinander zu vergleichen.

Station: Realer Luftdruck an der Station.